Nearby METAR Reports

 

KOJC - Olathe/Executive, Kansas, USA
Distance from station: N 14mi, 23km
Updated: Tue, 07-Jul-2020 9:53am CDT
Clear
Clear
 Wind from SSW
Wind: SSW 5 mph , 7 km/h
Temperature: 84°F , 29°C
Heat Index: 94°F , 34°C
Dew Point: 77°F , 25°C
Humidity: 79%
Barometer: 30.02 inHg , 1016.6 hPa
Clouds: Clear
Visibility: 10 miles , 16 km
2020/07/07 14:53 KOJC 071453Z 20004KT 10SM CLR 29/25 A3002 RMK AO2 SLP152 T02890250 55001
KIXD - Olathe/Industria, Kansas, USA
Distance from station: NW 15mi, 25km
Updated: Tue, 07-Jul-2020 9:53am CDT
Clear
Clear
 Wind from WSW
Wind: WSW 5 mph , 7 km/h
Temperature: 84°F , 29°C
Heat Index: 89°F , 32°C
Dew Point: 72°F , 22°C
Humidity: 66%
Barometer: 30.03 inHg , 1016.9 hPa
Clouds: Clear
Visibility: 10 miles , 16 km
2020/07/07 14:53 KIXD 071453Z 25004KT 10SM CLR 29/22 A3003 RMK AO2 SLP156 T02940222 53001
 
KLXT - Lees Summit Muni, Missouri, USA
Distance from station: NE 28mi, 46km
Updated: Tue, 07-Jul-2020 9:53am CDT
Clear
Clear
 Wind from calm
Wind: Calm
Temperature: 88°F , 31°C
Heat Index: 95°F , 35°C
Dew Point: 72°F , 22°C
Humidity: 59%
Barometer: 30.02 inHg , 1016.6 hPa
Clouds: Clear
Visibility: 10 miles , 16 km
2020/07/07 14:53 KLXT 071453Z AUTO 00000KT 10SM CLR 31/22 A3002 RMK AO2 SLP154 T03060222 58002
KMKC - Kansas City/Dntn, Missouri, USA
Distance from station: N 33mi, 53km
Updated: Tue, 07-Jul-2020 9:54am CDT
Clear
Clear
 Wind from calm
Wind: Calm
Temperature: 88°F , 31°C
Heat Index: 95°F , 35°C
Dew Point: 72°F , 22°C
Humidity: 59%
Barometer: 30.00 inHg , 1015.9 hPa
Clouds: Clear
Visibility: 9 miles , 14 km
2020/07/07 14:54 KMKC 071454Z 00000KT 9SM CLR 31/22 A3000 RMK AO2 SLP148 T03110217 56003
 
KLWC - Lawrence, Kansas, USA
Distance from station: NW 38mi, 61km
Updated: Tue, 07-Jul-2020 9:52am CDT
Clear
Clear
 Wind from calm
Wind: Calm
Temperature: 84°F , 29°C
Heat Index: 92°F , 33°C
Dew Point: 75°F , 24°C
Humidity: 74%
Barometer: 30.01 inHg , 1016.3 hPa
Clouds: Clear
Visibility: 8 miles , 13 km
2020/07/07 14:52 KLWC 071452Z AUTO 00000KT 8SM CLR 29/24 A3001 RMK AO1 SLP154 T02940239 53000
KFOE - Topeka/Forbes, Kansas, USA
Distance from station: WNW 43mi, 70km
Updated: Tue, 07-Jul-2020 9:53am CDT
Clear
Clear
 Wind from SSW
Wind: SSW 6 mph , 9 km/h
Temperature: 84°F , 29°C
Heat Index: 90°F , 32°C
Dew Point: 73°F , 23°C
Humidity: 70%
Barometer: 30.02 inHg , 1016.6 hPa
Clouds: Clear
Visibility: 10 miles , 16 km
2020/07/07 14:53 KFOE 071453Z 20005KT 10SM CLR 29/23 A3002 RMK AO2 SLP155 T02940228 53002
 
KMCI - Kansas City/Intl, Missouri, USA
Distance from station: N 45mi, 73km
Updated: Tue, 07-Jul-2020 9:53am CDT
Partly cloudy
Partly cloudy
 Wind from S
Wind: S 3 mph , 6 km/h
Temperature: 86°F , 30°C
Heat Index: 93°F , 34°C
Dew Point: 73°F , 23°C
Humidity: 66%
Barometer: 30.02 inHg , 1016.6 hPa
Clouds: Partly cloudy
Visibility: 9 miles , 14 km
Cloud details: Partly cloudy 20000 ft
2020/07/07 14:53 KMCI 071453Z 19003KT 9SM SCT200 30/23 A3002 RMK AO2 SLP153 T03000228 53001
KRCM - Warrensburg Skyh, Missouri, USA
Distance from station: ENE 49mi, 80km
Updated: Tue, 07-Jul-2020 10:35am CDT

 Wind from SE
Wind: SE 6 mph , 9 km/h
Temperature: 84°F , 29°C
Heat Index: 89°F , 32°C
Dew Point: 72°F , 22°C
Humidity: 66%
Barometer: 30.01 inHg , 1016.3 hPa
Visibility: 10 miles , 16 km
2020/07/07 15:35 KRCM 071535Z AUTO 14005KT 10SM 29/22 A3001 RMK AO2